AirNav   Air Wisconsin pilot careers
 
 512 users online  

LA25 Central Farmers Coop Airport
Mamou, Louisiana, USA

GOING TO MAMOU?


FAA INFORMATION EFFECTIVE 07 DECEMBER 2017

Location

FAA Identifier: LA25
Lat/Long: 30-41-50.7090N / 092-24-50.4770W
30-41.845150N / 092-24.841283W
30.6974192 / -92.4140214
(estimated)
Elevation: 68 ft. / 20.7 m (surveyed)
Variation: 04E (1985)
From city: 3 miles N of MAMOU, LA
Time zone: UTC -6 (UTC -5 during Daylight Saving Time)
Zip code: 70586

Airport Operations

Airport use: Private use. Permission required prior to landing
Activation date: 09/1964
Control tower: no
ARTCC: HOUSTON CENTER
FSS: DE RIDDER FLIGHT SERVICE STATION
Attendance: UNATNDD
Wind indicator: yes
Segmented circle: no
Beacon: white-green (lighted land airport)
ROTG BCN OTS INDEFLY. Operates sunset to sunrise.

Airport Communications

WX AWOS-3PT at ACP (15 nm W): 118.275 (318-215-9728)
WX AWOS-3PT at OPL (18 nm SE): 118.775 (337-948-8560)

Nearby radio navigation aids

VOR radial/distance  VOR name  Freq  Var
AEXr169/33.9ALEXANDRIA VORTAC116.1003E
LFTr321/37.3LAFAYETTE VORTAC109.8003E

 
NDB name  Hdg/Dist  Freq  Var  ID
DURALDE010/8.426302EECY . -.-. -.--
OAKDALE074/14.637903ELRR .-.. .-. .-.

Airport Services

Parking: hangars and tiedowns
Bottled oxygen: NONE

Runway Information

Runway 18/36

Dimensions: 3000 x 70 ft. / 914 x 21 m
Surface: asphalt, in poor condition
HAS SEVERAL POTHOLES ON CNTRLN OF RY; SEVERE CRACKING.
Weight bearing capacity: 
Single wheel: 5.0
Runway edge markings: BASIC MARKINGS; DSPLCD THLD PAINTED YELLOW.
RUNWAY 18  RUNWAY 36
Gradient: 0.1%0.1%
Traffic pattern: leftleft
Displaced threshold: no600 ft.
Markings: basic, in fair conditionNSTD, in fair condition
Obstructions: 45 ft. trees, 1100 ft. from runway, 125 ft. left of centerline, 20:1 slope to clear30 ft. bldg, 265 ft. from runway, 30 ft. right of centerline, 2:1 slope to clear
ROAD AND BLDG AT THR RWY 36.

Airport Ownership and Management from official FAA records

Ownership: Privately-owned
Owner: CENTRAL FARMERS FLYING SERVICE
1082 AIRPORT ROAD
VILLE PLATTE, LA 70586
Phone 337-363-5636
Manager: JERRY LANEAUX
1082 AIRPORT ROAD
VILLE PLATTE, LA 70586
Phone 337-363-5636

Airport Operational Statistics

Aircraft based on the field: 2
Single engine airplanes: 2
    
Aircraft operations: avg 36/week *
79% local general aviation
21% transient general aviation
* for 12-month period ending 06 February 1997

Additional Remarks

BE ALERT FOR FARM EQUIPMENT ON END OF RY 36.

Instrument Procedures

There are no published instrument procedures at LA25.

Some nearby airports with instrument procedures:

4R7 - Eunice Airport (14 nm S)
KACP - Allen Parish Airport (15 nm W)
2R6 - Bunkie Municipal Airport (18 nm NE)
KOPL - St Landry Parish Airport-Ahart Field (18 nm SE)
KMKV - Marksville Municipal Airport (30 nm NE)
 
Loc | Ops | Rwys | IFR | FBO | Links
Com | Nav | Svcs | Stats | Notes


 
Area around LA25 (Central Farmers Coop Airport)
 
Road maps at: MapQuest Bing Google
 
Aerial photo
No photo
 
Sectional chart

 
Airport distance calculator
Flying to Central Farmers Coop Airport? Find the distance to fly.

From to LA25

Sunrise and sunset
Times for 13-Dec-2017
 Local
(UTC-6)
 Zulu
(UTC)
Morning civil twilight06:3312:33
Sunrise06:5912:59
Sunset17:0823:08
Evening civil twilight17:3523:35

Current date and time
Zulu (UTC)  14-Dec-2017 05:58:24
Local (UTC-6)  13-Dec-2017 23:58:24
 
METAR
KACP 
15nm W 
140535Z AUTO 00000KT 7SM CLR 03/02 A2996 RMK AO2 T00290021
KOPL 
18nm SE 
140535Z AUTO 23003KT 10SM CLR 08/06 A2998 RMK AO2 T00800059
TAF
KLFT 
37nm SE 
131720Z 1318/1418 21008KT P6SM SCT250 FM140000 VRB03KT P6SM BKN250
KAEX 
39nm N 
131720Z 1318/1418 21008KT P6SM BKN250 FM140000 VRB03KT P6SM FEW250
KPOE 
40nm NW 
140000Z 1400/1506 22009KT 9999 SKC QNH2997INS BECMG 1408/1409 VRB06KT 9999 FEW100 QNH2992INS TX17/1420Z TN06/1411Z
NOTAMs
Click for the latest NOTAMs
NOTAMs are issued by the DoD/FAA and will open in a separate window not controlled by AirNav.

 

 
 

Would you like to see your business listed on this page?

 If your business provides an interesting product or service to pilots, flight crews, aircraft, or users of the Central Farmers Coop Airport, you should consider listing it here.  To start the listing process, click on the button below
 
Add a business
 

Other Pages about Central Farmers Coop Airport

Update a link
 
Copyright © AirNav, LLC. All rights reserved. Privacy Policy  Contact